createdAt,value
2018-01-26T00:00:43.309Z,1007.86
2018-01-26T00:02:36.270Z,1007.86
2018-01-26T00:03:36.203Z,1007.86
2018-01-26T00:05:29.342Z,1007.84
2018-01-26T00:06:29.223Z,1007.90
2018-01-26T00:08:23.595Z,1007.83
2018-01-26T00:10:35.311Z,1007.87
2018-01-26T00:11:35.245Z,1007.91
2018-01-26T00:13:28.368Z,1007.90
2018-01-26T00:14:28.263Z,1007.88
2018-01-26T00:16:21.352Z,1007.89
2018-01-26T00:17:24.139Z,1007.89
2018-01-26T00:19:14.399Z,1007.89
2018-01-26T00:20:14.304Z,1007.88
2018-01-26T00:22:07.396Z,1007.94
2018-01-26T00:23:07.327Z,1007.93
2018-01-26T00:25:00.444Z,1007.91
2018-01-26T00:26:00.348Z,1007.90
2018-01-26T00:27:53.435Z,1007.91
2018-01-26T00:28:53.367Z,1007.93
2018-01-26T00:30:46.480Z,1007.93
2018-01-26T00:31:46.389Z,1007.93
2018-01-26T00:36:43.600Z,1007.97
2018-01-26T00:37:43.471Z,1007.96
2018-01-26T00:39:51.319Z,1007.95
2018-01-26T00:46:41.749Z,1007.95
2018-01-26T00:47:25.526Z,1007.99
2018-01-26T00:49:18.639Z,1007.98
2018-01-26T00:50:18.565Z,1007.95
2018-01-26T00:58:21.717Z,1007.96
2018-01-26T00:59:21.639Z,1007.95
2018-01-26T01:02:47.709Z,1007.97
2018-01-26T01:05:00.791Z,1007.96
2018-01-26T01:08:46.814Z,1007.89
2018-01-26T01:09:46.703Z,1007.89
2018-01-26T01:13:32.831Z,1007.92
2018-01-26T01:14:11.736Z,1007.97
2018-01-26T01:16:04.850Z,1007.99
2018-01-26T01:18:17.843Z,1008.00
2018-01-26T01:19:17.772Z,1008.03
2018-01-26T01:21:10.890Z,1008.02
2018-01-26T01:22:10.790Z,1008.04
2018-01-26T01:27:31.419Z,1008.04
2018-01-26T01:28:08.419Z,1008.04
2018-01-26T01:30:01.639Z,1008.07
2018-01-26T01:31:01.639Z,1008.04
2018-01-26T01:32:54.657Z,1008.08
2018-01-26T01:33:54.658Z,1008.08
2018-01-26T01:35:47.676Z,1008.04
2018-01-26T01:36:47.677Z,1007.98
2018-01-26T01:38:40.698Z,1007.98
2018-01-26T01:39:40.699Z,1008.01
2018-01-26T01:43:07.181Z,1008.05
2018-01-26T01:44:04.964Z,1008.08
2018-01-26T01:47:51.073Z,1008.08
2018-01-26T01:49:54.991Z,1008.08
2018-01-26T01:51:50.950Z,1008.17
2018-01-26T01:52:36.040Z,1008.22
2018-01-26T01:56:37.767Z,1008.18
2018-01-26T01:57:00.769Z,1008.10
2018-01-26T02:02:35.535Z,1008.01
2018-01-26T02:03:00.128Z,1008.04
2018-01-26T02:04:53.255Z,1008.00
2018-01-26T02:05:53.150Z,1007.97
2018-01-26T02:07:46.221Z,1008.03
2018-01-26T02:13:15.940Z,1007.97
2018-01-26T02:14:03.207Z,1007.92
2018-01-26T02:15:56.340Z,1007.93
2018-01-26T02:16:56.220Z,1007.97
2018-01-26T02:20:24.138Z,1007.97
2018-01-26T02:21:24.063Z,1007.99
2018-01-26T02:23:15.331Z,1008.01
2018-01-26T02:24:15.258Z,1008.07
2018-01-26T02:26:38.218Z,1008.10
2018-01-26T02:27:08.291Z,1008.09
2018-01-26T02:29:02.165Z,1008.11
2018-01-26T02:37:22.445Z,1008.13
2018-01-26T02:38:22.376Z,1008.12
2018-01-26T02:39:22.311Z,1008.16
2018-01-26T02:40:22.251Z,1008.15
2018-01-26T02:43:12.882Z,1008.15
2018-01-26T02:46:52.231Z,1008.26
2018-01-26T02:50:51.538Z,1008.29
2018-01-26T02:51:25.057Z,1008.30
2018-01-26T02:54:50.598Z,1008.38
2018-01-26T02:55:50.491Z,1008.35
2018-01-26T02:57:58.370Z,1008.31
2018-01-26T03:04:32.686Z,1008.33
2018-01-26T03:05:32.571Z,1008.30
2018-01-26T03:09:25.798Z,1008.36
2018-01-26T03:09:58.605Z,1008.37
2018-01-26T03:11:51.743Z,1008.40
2018-01-26T03:12:51.626Z,1008.39
2018-01-26T03:14:44.716Z,1008.35
2018-01-26T03:15:44.651Z,1008.37
2018-01-26T03:17:37.783Z,1008.40
2018-01-26T03:18:37.671Z,1008.39
2018-01-26T03:20:30.803Z,1008.44
2018-01-26T03:21:30.689Z,1008.43
2018-01-26T03:23:23.783Z,1008.47
2018-01-26T03:26:13.708Z,1008.48
2018-01-26T03:26:36.698Z,1008.48
2018-01-26T03:28:44.576Z,1008.49
2018-01-26T03:29:29.749Z,1008.51
2018-01-26T03:31:49.210Z,1008.42
2018-01-26T03:32:22.779Z,1008.42
2018-01-26T03:35:56.681Z,1008.43
2018-01-26T03:48:48.024Z,1008.42
2018-01-26T03:49:47.909Z,1008.41
2018-01-26T03:51:41.042Z,1008.39
2018-01-26T03:52:40.927Z,1008.41
2018-01-26T03:54:34.017Z,1008.38
2018-01-26T03:55:33.955Z,1008.32
2018-01-26T03:57:27.090Z,1008.29
2018-01-26T03:58:26.971Z,1008.28
2018-01-26T04:00:20.078Z,1008.33
2018-01-26T04:01:20.009Z,1008.36
2018-01-26T04:03:13.110Z,1008.38
2018-01-26T04:04:13.002Z,1008.35
2018-01-26T04:07:45.165Z,1008.37
2018-01-26T04:08:38.661Z,1008.40
2018-01-26T04:12:04.848Z,1008.47
2018-01-26T04:13:04.348Z,1008.51
2018-01-26T04:14:58.080Z,1008.53
2018-01-26T04:15:58.079Z,1008.52
2018-01-26T04:22:26.790Z,1008.57
2018-01-26T04:24:39.221Z,1008.63
2018-01-26T04:26:52.298Z,1008.61
2018-01-26T04:27:52.187Z,1008.60
2018-01-26T04:31:56.286Z,1008.69
2018-01-26T04:32:56.217Z,1008.72
2018-01-26T04:39:26.382Z,1008.84
2018-01-26T04:40:26.269Z,1008.81
2018-01-26T04:45:24.416Z,1008.84
2018-01-26T04:52:32.103Z,1008.92
2018-01-26T04:54:26.458Z,1008.96
2018-01-26T04:55:26.394Z,1008.99
2018-01-26T04:57:19.835Z,1009.00
2018-01-26T04:58:19.414Z,1008.97
2018-01-26T05:00:12.510Z,1008.97
2018-01-26T05:07:01.426Z,1009.04
2018-01-26T05:08:01.356Z,1009.04
2018-01-26T05:09:54.551Z,1009.08
2018-01-26T05:10:54.482Z,1009.12
2018-01-26T05:15:51.642Z,1009.16
2018-01-26T05:16:51.528Z,1009.18
2018-01-26T05:18:44.645Z,1009.15
2018-01-26T05:22:30.720Z,1009.28
2018-01-26T05:23:30.606Z,1009.28
2018-01-26T05:26:22.644Z,1009.27
2018-01-26T05:27:03.636Z,1009.32
2018-01-26T05:28:56.477Z,1009.28
2018-01-26T05:32:41.752Z,1009.30
2018-01-26T05:33:42.501Z,1009.34
2018-01-26T05:37:41.122Z,1009.43
2018-01-26T05:38:10.554Z,1009.45
2018-01-26T05:40:00.806Z,1009.45
2018-01-26T05:41:00.737Z,1009.42
2018-01-26T05:42:00.675Z,1009.45
2018-01-26T05:43:00.610Z,1009.40
2018-01-26T05:53:19.426Z,1009.56
2018-01-26T05:54:16.427Z,1009.54
2018-01-26T05:56:06.654Z,1009.55
2018-01-26T05:57:06.651Z,1009.57
2018-01-26T05:58:59.671Z,1009.58
2018-01-26T06:02:53.665Z,1009.55
2018-01-26T06:03:45.667Z,1009.56
2018-01-26T06:12:08.707Z,1009.53
2018-01-26T06:13:41.043Z,1009.55
2018-01-26T06:14:40.974Z,1009.58
2018-01-26T06:16:34.067Z,1009.58
2018-01-26T06:17:33.997Z,1009.62
2018-01-26T06:20:00.445Z,1009.63
2018-01-26T06:20:27.032Z,1009.59
2018-01-26T06:24:31.158Z,1009.64
2018-01-26T06:28:22.958Z,1009.65
2018-01-26T06:29:17.074Z,1009.63
2018-01-26T06:31:10.171Z,1009.67
2018-01-26T06:32:10.100Z,1009.72
2018-01-26T06:33:10.036Z,1009.71
2018-01-26T06:34:09.975Z,1009.77
2018-01-26T06:35:12.453Z,1009.85
2018-01-26T06:36:09.857Z,1009.81
2018-01-26T06:37:09.796Z,1009.87
2018-01-26T06:38:16.489Z,1009.84
2018-01-26T06:39:09.712Z,1009.91
2018-01-26T06:40:09.647Z,1009.90
2018-01-26T06:41:12.454Z,1009.92
2018-01-26T06:43:41.278Z,1010.01
2018-01-26T06:45:54.327Z,1010.08
2018-01-26T06:46:54.229Z,1010.09
2018-01-26T06:48:47.315Z,1010.10
2018-01-26T06:49:47.221Z,1010.12
2018-01-26T06:51:55.088Z,1010.13
2018-01-26T06:52:40.235Z,1010.10
2018-01-26T06:54:33.381Z,1010.04
2018-01-26T06:55:33.260Z,1010.02
2018-01-26T07:02:03.457Z,1010.03
2018-01-26T07:03:03.336Z,1010.02
2018-01-26T07:04:56.468Z,1010.03
2018-01-26T07:05:56.362Z,1010.04
2018-01-26T07:07:49.446Z,1010.02
2018-01-26T07:08:49.339Z,1010.02
2018-01-26T07:13:47.536Z,1010.26
2018-01-26T07:14:47.412Z,1010.28
2018-01-26T07:16:40.505Z,1010.31
2018-01-26T07:17:40.435Z,1010.32
2018-01-26T07:22:37.554Z,1010.43
2018-01-26T07:23:37.487Z,1010.45
2018-01-26T07:25:30.606Z,1010.56
2018-01-26T07:26:30.499Z,1010.57
2018-01-26T07:28:23.600Z,1010.56
2018-01-26T07:29:23.505Z,1010.54
2018-01-26T07:31:16.595Z,1010.57
2018-01-26T07:32:16.526Z,1010.55
2018-01-26T07:34:24.860Z,1010.58
2018-01-26T07:37:55.658Z,1010.64
2018-01-26T07:38:55.585Z,1010.63
2018-01-26T07:43:52.803Z,1010.79
2018-01-26T07:44:52.653Z,1010.86
2018-01-26T07:46:45.748Z,1010.88
2018-01-26T07:47:45.676Z,1010.92
2018-01-26T07:49:38.834Z,1010.94
2018-01-26T07:51:51.757Z,1010.99
2018-01-26T07:55:57.607Z,1011.01
2018-01-26T07:56:36.515Z,1011.04
2018-01-26T07:58:29.859Z,1011.08
2018-01-26T07:59:29.764Z,1011.11
2018-01-26T08:01:22.842Z,1011.12
2018-01-26T08:02:22.774Z,1011.16
2018-01-26T08:04:15.885Z,1011.14
2018-01-26T08:05:15.801Z,1011.18
2018-01-26T08:07:08.885Z,1011.24
2018-01-26T08:08:08.819Z,1011.29
2018-01-26T08:10:01.980Z,1011.33
2018-01-26T08:11:01.859Z,1011.29
2018-01-26T08:12:54.943Z,1011.24
2018-01-26T08:15:37.860Z,1011.22
2018-01-26T08:16:07.837Z,1011.23
2018-01-26T08:18:00.969Z,1011.36
2018-01-26T08:19:00.902Z,1011.39
2018-01-26T08:20:54.028Z,1011.44
2018-01-26T08:21:53.924Z,1011.43
2018-01-26T08:22:53.862Z,1011.46
2018-01-26T08:23:53.803Z,1011.39
2018-01-26T08:24:53.745Z,1011.44
2018-01-26T08:27:59.332Z,1011.48
2018-01-26T08:32:47.259Z,1011.42
2018-01-26T08:33:44.474Z,1011.39
2018-01-26T08:37:10.171Z,1011.32
2018-01-26T08:41:21.960Z,1011.36
2018-01-26T08:43:28.207Z,1011.44
2018-01-26T08:46:14.592Z,1011.46
2018-01-26T08:46:41.122Z,1011.46
2018-01-26T08:47:41.057Z,1011.49
2018-01-26T08:48:40.998Z,1011.49
2018-01-26T08:49:40.937Z,1011.55
2018-01-26T08:50:40.879Z,1011.56
2018-01-26T08:51:55.529Z,1011.58
2018-01-26T08:53:01.746Z,1011.61
2018-01-26T08:53:40.709Z,1011.64
2018-01-26T08:59:56.462Z,1011.62
2018-01-26T09:01:30.310Z,1011.63
2018-01-26T09:02:30.238Z,1011.62
2018-01-26T09:05:55.391Z,1011.64
2018-01-26T09:06:55.267Z,1011.63
2018-01-26T09:08:48.352Z,1011.66
2018-01-26T09:11:01.457Z,1011.71
2018-01-26T09:13:14.366Z,1011.72
2018-01-26T09:14:15.172Z,1011.77
2018-01-26T09:16:07.804Z,1011.76
2018-01-26T09:17:07.358Z,1011.74
2018-01-26T09:20:33.460Z,1011.74
2018-01-26T09:21:33.405Z,1011.77
2018-01-26T09:23:47.442Z,1011.80
2018-01-26T09:25:19.505Z,1011.81
2018-01-26T09:29:45.524Z,1011.94
2018-01-26T09:36:32.744Z,1012.11
2018-01-26T09:36:53.575Z,1012.11
2018-01-26T09:38:47.350Z,1012.10
2018-01-26T09:39:47.341Z,1012.10
2018-01-26T09:42:02.335Z,1012.15
2018-01-26T09:43:33.896Z,1012.22
2018-01-26T09:44:32.555Z,1012.22
2018-01-26T09:46:25.694Z,1012.18
2018-01-26T09:47:25.580Z,1012.20
2018-01-26T09:49:18.668Z,1012.25
2018-01-26T09:50:18.600Z,1012.29
2018-01-26T09:52:11.736Z,1012.33
2018-01-26T09:53:11.621Z,1012.33
2018-01-26T09:56:37.791Z,1012.37
2018-01-26T09:57:37.649Z,1012.38
2018-01-26T09:59:30.731Z,1012.45
2018-01-26T10:00:30.665Z,1012.47
2018-01-26T10:02:23.797Z,1012.46
2018-01-26T10:03:23.688Z,1012.48
2018-01-26T10:05:16.816Z,1012.53
2018-01-26T10:06:16.705Z,1012.54
2018-01-26T10:08:09.835Z,1012.54
2018-01-26T10:09:09.723Z,1012.54
2018-01-26T10:11:02.819Z,1012.48
2018-01-26T10:12:04.022Z,1012.50
2018-01-26T10:14:16.904Z,1012.57
2018-01-26T10:14:55.795Z,1012.56
2018-01-26T10:17:13.716Z,1012.58
2018-01-26T10:17:48.806Z,1012.59
2018-01-26T10:19:56.681Z,1012.57
2018-01-26T10:20:41.833Z,1012.57
2018-01-26T10:22:34.921Z,1012.56
2018-01-26T10:23:34.825Z,1012.62
2018-01-26T10:25:27.909Z,1012.57
2018-01-26T10:26:28.637Z,1012.61
2018-01-26T10:28:21.024Z,1012.61
2018-01-26T10:29:20.888Z,1012.62
2018-01-26T10:31:14.090Z,1012.68
2018-01-26T10:32:13.910Z,1012.71
2018-01-26T10:34:07.041Z,1012.78
2018-01-26T10:35:06.927Z,1012.76
2018-01-26T10:37:00.025Z,1012.76
2018-01-26T10:37:59.947Z,1012.71
2018-01-26T10:39:53.080Z,1012.70
2018-01-26T10:40:52.968Z,1012.70
2018-01-26T10:42:46.107Z,1012.71
2018-01-26T10:43:45.990Z,1012.75
2018-01-26T10:45:39.124Z,1012.75
2018-01-26T10:46:39.013Z,1012.79
2018-01-26T10:48:32.145Z,1012.80
2018-01-26T10:49:32.086Z,1012.81
2018-01-26T10:51:25.168Z,1012.77
2018-01-26T10:52:25.055Z,1012.78
2018-01-26T10:54:18.197Z,1012.83
2018-01-26T10:55:18.081Z,1012.81
2018-01-26T10:57:11.172Z,1012.80
2018-01-26T10:58:11.098Z,1012.77
2018-01-26T11:00:04.232Z,1012.78
2018-01-26T11:01:04.119Z,1012.83
2018-01-26T11:02:57.254Z,1012.80
2018-01-26T11:03:57.145Z,1012.79
2018-01-26T11:05:50.273Z,1012.82
2018-01-26T11:06:50.161Z,1012.83
2018-01-26T11:08:43.251Z,1012.83
2018-01-26T11:09:43.180Z,1012.90
2018-01-26T11:11:36.319Z,1012.91
2018-01-26T11:12:36.206Z,1012.90
2018-01-26T11:14:29.291Z,1012.93
2018-01-26T11:15:29.222Z,1012.94
2018-01-26T11:17:22.345Z,1012.97
2018-01-26T11:18:22.236Z,1012.97
2018-01-26T11:20:15.421Z,1012.94
2018-01-26T11:21:15.268Z,1012.95
2018-01-26T11:23:08.376Z,1012.97
2018-01-26T11:24:08.261Z,1013.02
2018-01-26T11:26:01.418Z,1013.05
2018-01-26T11:27:02.141Z,1013.04
2018-01-26T11:29:16.187Z,1013.02
2018-01-26T11:30:47.463Z,1013.03
2018-01-26T11:31:47.340Z,1013.04
2018-01-26T11:33:40.373Z,1013.07
2018-01-26T11:34:40.299Z,1013.09
2018-01-26T11:36:33.484Z,1013.09
2018-01-26T11:37:34.175Z,1013.06
2018-01-26T11:39:47.460Z,1013.10
2018-01-26T11:41:19.539Z,1013.13
2018-01-26T11:42:19.414Z,1013.17
2018-01-26T11:44:27.293Z,1013.22
2018-01-26T11:45:12.444Z,1013.24
2018-01-26T11:47:05.576Z,1013.15
2018-01-26T11:48:05.460Z,1013.19
2018-01-26T11:51:31.326Z,1013.25
2018-01-26T11:52:31.817Z,1013.24
2018-01-26T11:54:24.584Z,1013.32
2018-01-26T11:56:37.703Z,1013.28
2018-01-26T11:57:38.350Z,1013.31
2018-01-26T11:59:30.649Z,1013.33
2018-01-26T12:00:31.319Z,1013.35
2018-01-26T12:02:24.334Z,1013.35
2018-01-26T12:03:23.593Z,1013.35
2018-01-26T12:05:17.356Z,1013.38
2018-01-26T12:06:17.355Z,1013.44
2018-01-26T12:08:10.374Z,1013.39
2018-01-26T12:09:10.375Z,1013.40
2018-01-26T12:11:03.395Z,1013.37
2018-01-26T12:12:02.649Z,1013.44
2018-01-26T12:13:55.779Z,1013.38
2018-01-26T12:14:56.420Z,1013.34
2018-01-26T12:16:49.438Z,1013.41
2018-01-26T12:17:49.438Z,1013.39
2018-01-26T12:19:41.800Z,1013.38
2018-01-26T12:20:42.459Z,1013.43
2018-01-26T12:22:35.482Z,1013.47
2018-01-26T12:23:35.479Z,1013.52
2018-01-26T12:25:30.777Z,1013.51
2018-01-26T12:26:28.511Z,1013.57
2018-01-26T12:28:52.171Z,1013.54
2018-01-26T12:29:20.771Z,1013.54
2018-01-26T12:32:47.173Z,1013.54
2018-01-26T12:33:46.993Z,1013.59
2018-01-26T12:35:40.858Z,1013.58
2018-01-26T12:36:40.790Z,1013.56
2018-01-26T12:38:34.922Z,1013.56
2018-01-26T12:39:34.931Z,1013.56
2018-01-26T12:43:33.254Z,1013.54
2018-01-26T12:44:15.897Z,1013.54
2018-01-26T12:47:43.635Z,1013.55
2018-01-26T12:48:41.873Z,1013.55
2018-01-26T12:50:34.965Z,1013.56
2018-01-26T12:51:34.898Z,1013.54
2018-01-26T12:53:28.007Z,1013.54
2018-01-26T12:57:30.357Z,1013.52
2018-01-26T12:59:28.150Z,1013.53
2018-01-26T13:00:28.032Z,1013.53
2018-01-26T13:02:21.089Z,1013.55
2018-01-26T13:03:21.024Z,1013.51
2018-01-26T13:05:14.459Z,1013.56
2018-01-26T13:06:14.053Z,1013.59
2018-01-26T13:08:07.183Z,1013.56
2018-01-26T13:10:21.046Z,1013.51
2018-01-26T13:11:20.156Z,1013.53
2018-01-26T13:13:14.048Z,1013.56
2018-01-26T13:14:13.177Z,1013.58
2018-01-26T13:16:06.282Z,1013.65
2018-01-26T13:17:06.167Z,1013.68
2018-01-26T13:19:10.138Z,1013.70
2018-01-26T13:19:59.162Z,1013.71
2018-01-26T13:21:56.005Z,1013.69
2018-01-26T13:22:52.105Z,1013.70
2018-01-26T13:24:46.914Z,1013.68
2018-01-26T13:25:45.913Z,1013.67
2018-01-26T13:27:38.986Z,1013.62
2018-01-26T13:28:38.985Z,1013.63
2018-01-26T13:30:33.505Z,1013.68
2018-01-26T13:31:32.007Z,1013.67
2018-01-26T13:33:25.439Z,1013.70
2018-01-26T13:34:25.365Z,1013.68
2018-01-26T13:36:19.380Z,1013.68
2018-01-26T13:38:56.224Z,1013.69
2018-01-26T13:40:25.453Z,1013.71
2018-01-26T13:41:25.321Z,1013.68
2018-01-26T13:43:19.125Z,1013.72
2018-01-26T13:44:19.167Z,1013.69
2018-01-26T13:46:12.144Z,1013.62
2018-01-26T13:47:12.133Z,1013.69
2018-01-26T13:49:05.165Z,1013.72
2018-01-26T13:50:04.493Z,1013.72
2018-01-26T13:51:57.475Z,1013.72
2018-01-26T13:52:57.485Z,1013.74
2018-01-26T13:54:50.637Z,1013.79
2018-01-26T13:55:50.592Z,1013.78
2018-01-26T13:57:45.996Z,1013.82
2018-01-26T13:58:45.433Z,1013.81
2018-01-26T14:02:11.513Z,1013.79
2018-01-26T14:03:11.444Z,1013.83
2018-01-26T14:05:04.597Z,1013.87
2018-01-26T14:06:04.486Z,1013.86
2018-01-26T14:07:57.618Z,1013.85
2018-01-26T14:08:57.515Z,1013.84
2018-01-26T14:12:22.696Z,1013.88
2018-01-26T14:13:22.570Z,1013.87
2018-01-26T14:16:55.019Z,1013.90
2018-01-26T14:17:48.627Z,1013.93
2018-01-26T14:19:41.751Z,1013.97
2018-01-26T14:25:00.726Z,1014.04
2018-01-26T14:26:00.228Z,1014.07
2018-01-26T14:27:53.484Z,1014.08
2018-01-26T14:28:53.453Z,1014.12
2018-01-26T14:30:46.469Z,1014.12
2018-01-26T14:31:46.468Z,1014.17
2018-01-26T14:33:39.493Z,1014.22
2018-01-26T14:34:39.491Z,1014.21
2018-01-26T14:36:32.510Z,1014.22
2018-01-26T14:37:32.510Z,1014.27
2018-01-26T14:39:25.530Z,1014.28
2018-01-26T14:40:25.530Z,1014.25
2018-01-26T14:43:50.561Z,1014.31
2018-01-26T14:49:11.108Z,1014.39
2018-01-26T14:50:09.834Z,1014.40
2018-01-26T14:52:02.987Z,1014.47
2018-01-26T14:53:03.637Z,1014.50
2018-01-26T14:54:56.027Z,1014.51
2018-01-26T14:55:55.889Z,1014.55
2018-01-26T14:56:55.826Z,1014.54
2018-01-26T14:57:55.765Z,1014.50
2018-01-26T14:58:55.706Z,1014.55
2018-01-26T15:01:55.346Z,1014.63
2018-01-26T15:02:27.955Z,1014.63
2018-01-26T15:04:21.069Z,1014.67
2018-01-26T15:05:20.960Z,1014.67
2018-01-26T15:07:14.042Z,1014.69
2018-01-26T15:08:13.970Z,1014.71
2018-01-26T15:10:07.104Z,1014.81
2018-01-26T15:12:20.064Z,1014.86
2018-01-26T15:13:19.996Z,1014.88
2018-01-26T15:16:45.130Z,1014.96
2018-01-26T15:17:45.028Z,1014.97
2018-01-26T15:19:38.202Z,1015.01
2018-01-26T15:20:38.078Z,1015.02
2018-01-26T15:22:31.160Z,1015.05
2018-01-26T15:23:31.089Z,1015.07
2018-01-26T15:25:24.232Z,1015.10
2018-01-26T15:26:24.118Z,1015.11
2018-01-26T15:28:17.184Z,1015.12
2018-01-26T15:29:17.142Z,1015.13
2018-01-26T15:31:10.281Z,1015.16
2018-01-26T15:32:10.155Z,1015.19
2018-01-26T15:37:08.278Z,1015.20
2018-01-26T15:38:08.175Z,1015.17
2018-01-26T15:44:58.388Z,1015.14
2018-01-26T15:47:13.693Z,1015.18
2018-01-26T15:48:43.377Z,1015.24
2018-01-26T15:49:43.292Z,1015.29
2018-01-26T15:51:36.433Z,1015.28
2018-01-26T15:52:36.323Z,1015.26
2018-01-26T15:54:29.497Z,1015.29
2018-01-26T15:58:15.776Z,1015.30
2018-01-26T15:59:16.553Z,1015.30
2018-01-26T16:01:09.992Z,1015.38
2018-01-26T16:02:08.833Z,1015.40
2018-01-26T16:04:02.820Z,1015.44
2018-01-26T16:05:02.720Z,1015.47
2018-01-26T16:06:56.650Z,1015.47
2018-01-26T16:07:56.426Z,1015.52
2018-01-26T16:09:50.216Z,1015.54
2018-01-26T16:10:49.489Z,1015.50
2018-01-26T16:12:42.578Z,1015.54
2018-01-26T16:13:42.506Z,1015.54
2018-01-26T16:15:35.768Z,1015.57
2018-01-26T16:16:35.512Z,1015.58
2018-01-26T16:18:29.042Z,1015.62
2018-01-26T16:19:28.622Z,1015.61
2018-01-26T16:21:21.670Z,1015.66
2018-01-26T16:22:21.545Z,1015.68
2018-01-26T16:24:15.284Z,1015.69
2018-01-26T16:25:15.335Z,1015.70
2018-01-26T16:27:33.725Z,1015.76
2018-01-26T16:28:33.595Z,1015.77
2018-01-26T16:30:41.088Z,1015.77
2018-01-26T16:34:26.890Z,1015.83
2018-01-26T16:35:26.615Z,1015.83
2018-01-26T16:37:19.774Z,1015.86
2018-01-26T16:38:19.777Z,1015.91
2018-01-26T16:40:56.387Z,1015.95
2018-01-26T16:41:27.729Z,1015.94
2018-01-26T16:43:22.797Z,1015.99
2018-01-26T16:44:22.771Z,1015.99
2018-01-26T16:46:16.021Z,1016.06
2018-01-26T16:47:16.014Z,1016.06
2018-01-26T16:49:10.078Z,1016.09
2018-01-26T16:50:09.898Z,1016.11
2018-01-26T16:52:35.082Z,1016.13
2018-01-26T16:53:34.934Z,1016.15
2018-01-26T16:55:43.313Z,1016.14
2018-01-26T16:56:40.820Z,1016.20
2018-01-26T16:58:54.806Z,1016.27
2018-01-26T16:59:55.675Z,1016.29
2018-01-26T17:02:33.180Z,1016.36
2018-01-26T17:03:32.361Z,1016.35
2018-01-26T17:05:22.938Z,1016.40
2018-01-26T17:06:22.810Z,1016.42
2018-01-26T17:09:16.270Z,1016.50
2018-01-26T17:11:10.096Z,1016.59
2018-01-26T17:12:11.816Z,1016.60
2018-01-26T17:14:03.255Z,1016.58
2018-01-26T17:17:50.079Z,1016.58
2018-01-26T17:18:50.007Z,1016.58
2018-01-26T17:20:50.384Z,1016.61
2018-01-26T17:21:43.063Z,1016.62
2018-01-26T17:29:50.364Z,1016.70
2018-01-26T17:30:36.585Z,1016.71
2018-01-26T17:32:32.089Z,1016.78
2018-01-26T17:36:53.544Z,1016.92
2018-01-26T17:37:53.477Z,1016.91
2018-01-26T17:39:59.893Z,1016.93
2018-01-26T17:40:47.137Z,1016.91
2018-01-26T17:42:40.424Z,1016.94
2018-01-26T17:43:40.196Z,1016.97
2018-01-26T17:47:06.269Z,1017.00
2018-01-26T17:48:06.195Z,1017.00
2018-01-26T17:50:10.106Z,1017.00
2018-01-26T17:50:59.208Z,1017.03
2018-01-26T17:52:52.302Z,1017.05
2018-01-26T17:53:53.120Z,1017.08
2018-01-26T17:55:45.399Z,1017.07
2018-01-26T17:56:45.277Z,1017.10
2018-01-26T17:58:38.426Z,1017.08
2018-01-26T17:59:38.301Z,1017.08
2018-01-26T18:01:52.357Z,1017.12
2018-01-26T18:03:24.384Z,1017.12
2018-01-26T18:04:24.320Z,1017.14
2018-01-26T18:06:17.347Z,1017.15
2018-01-26T18:07:18.116Z,1017.19
2018-01-26T18:09:10.455Z,1017.24
2018-01-26T18:10:10.354Z,1017.21
2018-01-26T18:12:03.468Z,1017.26
2018-01-26T18:13:03.393Z,1017.24
2018-01-26T18:15:09.442Z,1017.25
2018-01-26T18:15:56.432Z,1017.25
2018-01-26T18:17:49.510Z,1017.26
2018-01-26T18:18:49.444Z,1017.30
2018-01-26T18:20:42.630Z,1017.28
2018-01-26T18:21:43.262Z,1017.34
2018-01-26T18:23:35.676Z,1017.35
2018-01-26T18:24:35.590Z,1017.39
2018-01-26T18:26:58.351Z,1017.40
2018-01-26T18:29:03.362Z,1017.46
2018-01-26T18:30:34.852Z,1017.49
2018-01-26T18:31:34.556Z,1017.52
2018-01-26T18:33:32.354Z,1017.55
2018-01-26T18:34:27.575Z,1017.54
2018-01-26T18:36:20.708Z,1017.59
2018-01-26T18:38:33.759Z,1017.60
2018-01-26T18:39:33.654Z,1017.62
2018-01-26T18:41:27.062Z,1017.67
2018-01-26T18:42:26.751Z,1017.70
2018-01-26T18:44:19.734Z,1017.72
2018-01-26T18:47:04.732Z,1017.73
2018-01-26T18:47:32.684Z,1017.77
2018-01-26T18:49:25.784Z,1017.74
2018-01-26T18:50:25.710Z,1017.74
2018-01-26T18:52:29.666Z,1017.79
2018-01-26T18:53:18.720Z,1017.84
2018-01-26T18:55:11.780Z,1017.92
2018-01-26T18:56:11.710Z,1017.93
2018-01-26T18:58:04.831Z,1017.94
2018-01-26T18:59:04.732Z,1017.93
2018-01-26T19:00:58.151Z,1017.99
2018-01-26T19:01:57.791Z,1017.98
2018-01-26T19:03:58.729Z,1018.01
2018-01-26T19:04:50.803Z,1018.02
2018-01-26T19:06:43.891Z,1018.04
2018-01-26T19:07:43.817Z,1018.06
2018-01-26T19:09:36.988Z,1018.13
2018-01-26T19:10:37.039Z,1018.13
2018-01-26T19:12:29.940Z,1018.15
2018-01-26T19:13:29.863Z,1018.14
2018-01-26T19:15:50.320Z,1018.19
2018-01-26T19:17:35.987Z,1018.25
2018-01-26T19:18:35.902Z,1018.22
2018-01-26T19:20:29.035Z,1018.25
2018-01-26T19:21:29.720Z,1018.27
2018-01-26T19:23:22.055Z,1018.27
2018-01-26T19:24:21.940Z,1018.27
2018-01-26T19:26:36.066Z,1018.28
2018-01-26T19:31:39.250Z,1018.33
2018-01-26T19:32:12.110Z,1018.35
2018-01-26T19:34:05.118Z,1018.40
2018-01-26T19:35:05.047Z,1018.41
2018-01-26T19:38:30.266Z,1018.43
2018-01-26T19:39:30.652Z,1018.46
2018-01-26T19:42:56.257Z,1018.49
2018-01-26T19:43:56.133Z,1018.52
2018-01-26T19:45:49.241Z,1018.57
2018-01-26T19:46:49.138Z,1018.61
2018-01-26T19:48:42.337Z,1018.62
2018-01-26T19:49:44.030Z,1018.63
2018-01-26T19:53:16.567Z,1018.63
2018-01-26T19:54:08.203Z,1018.62
2018-01-26T19:56:01.297Z,1018.62
2018-01-26T19:57:01.193Z,1018.62
2018-01-26T19:58:54.278Z,1018.63
2018-01-26T19:59:54.212Z,1018.63
2018-01-26T20:01:47.348Z,1018.59
2018-01-26T20:02:47.234Z,1018.66
2018-01-26T20:04:40.358Z,1018.65
2018-01-26T20:05:40.289Z,1018.66
2018-01-26T20:07:37.262Z,1018.67
2018-01-26T20:08:33.292Z,1018.67
2018-01-26T20:11:59.441Z,1018.74
2018-01-26T20:14:12.398Z,1018.77
2018-01-26T20:15:12.323Z,1018.81
2018-01-26T20:18:37.484Z,1018.87
2018-01-26T20:19:37.365Z,1018.87
2018-01-26T20:21:30.469Z,1018.90
2018-01-26T20:22:30.395Z,1018.93
2018-01-26T20:24:25.526Z,1018.88
2018-01-26T20:25:25.400Z,1018.92
2018-01-26T20:28:59.695Z,1018.99
2018-01-26T20:29:50.462Z,1019.03
2018-01-26T20:30:50.404Z,1019.05
2018-01-26T20:31:50.340Z,1019.08
2018-01-26T20:32:50.278Z,1019.15
2018-01-26T20:33:50.218Z,1019.15
2018-01-26T20:34:50.171Z,1019.19
2018-01-26T20:35:50.103Z,1019.18
2018-01-26T20:36:50.039Z,1019.19
2018-01-26T20:37:49.989Z,1019.16
2018-01-26T20:38:49.921Z,1019.16
2018-01-26T20:39:49.878Z,1019.21
2018-01-26T20:40:49.823Z,1019.19
2018-01-26T20:43:36.937Z,1019.19
2018-01-26T20:44:21.564Z,1019.22
2018-01-26T20:49:19.680Z,1019.22
2018-01-26T20:50:19.572Z,1019.27
2018-01-26T20:52:12.696Z,1019.30
2018-01-26T20:53:12.596Z,1019.29
2018-01-26T20:55:05.733Z,1019.34
2018-01-26T21:00:23.784Z,1019.40
2018-01-26T21:01:23.714Z,1019.42
2018-01-26T21:03:16.846Z,1019.41
2018-01-26T21:04:16.736Z,1019.48
2018-01-26T21:06:24.823Z,1019.44
2018-01-26T21:07:24.742Z,1019.52
2018-01-26T21:10:49.892Z,1019.56
2018-01-26T21:11:49.775Z,1019.54
2018-01-26T21:13:42.911Z,1019.58
2018-01-26T21:14:42.788Z,1019.61
2018-01-26T21:16:35.891Z,1019.65
2018-01-26T21:17:35.811Z,1019.67
2018-01-26T21:19:28.952Z,1019.70
2018-01-26T21:20:28.827Z,1019.74
2018-01-26T21:22:21.909Z,1019.71
2018-01-26T21:23:21.842Z,1019.71
2018-01-26T21:25:14.977Z,1019.69
2018-01-26T21:26:14.861Z,1019.69
2018-01-26T21:28:08.000Z,1019.69
2018-01-26T21:29:07.892Z,1019.69
2018-01-26T21:31:01.778Z,1019.73
2018-01-26T21:36:25.641Z,1019.81
2018-01-26T21:37:18.961Z,1019.80
2018-01-26T21:39:12.119Z,1019.84
2018-01-26T21:40:11.986Z,1019.88
2018-01-26T21:43:40.270Z,1019.88
2018-01-26T21:44:38.046Z,1019.86
2018-01-26T21:46:31.153Z,1019.85
2018-01-26T21:47:31.032Z,1019.87
2018-01-26T21:49:24.168Z,1019.93
2018-01-26T21:50:24.074Z,1019.93